createdAt,value
2018-03-03T00:00:34.671Z,2.9
2018-03-03T00:01:24.828Z,2.8
2018-03-03T00:02:14.008Z,2.5
2018-03-03T00:03:04.853Z,2.4
2018-03-03T00:03:54.535Z,2.6
2018-03-03T00:04:44.666Z,2.6
2018-03-03T00:05:35.032Z,2.5
2018-03-03T00:06:24.189Z,2.4
2018-03-03T00:07:14.523Z,2.3
2018-03-03T00:08:05.217Z,2.2
2018-03-03T00:08:54.954Z,2.2
2018-03-03T00:09:44.419Z,2.1
2018-03-03T00:10:34.664Z,2.1
2018-03-03T00:11:25.135Z,2.2
2018-03-03T00:12:15.163Z,2.1
2018-03-03T00:13:04.857Z,2.2
2018-03-03T00:13:55.082Z,2.2
2018-03-03T00:14:45.351Z,2.3
2018-03-03T00:15:35.701Z,2.4
2018-03-03T00:16:25.418Z,2.4
2018-03-03T00:17:15.897Z,2.5
2018-03-03T00:18:05.880Z,2.5
2018-03-03T00:18:54.954Z,2.4
2018-03-03T00:19:45.204Z,2.4
2018-03-03T00:20:35.558Z,2.4
2018-03-03T00:21:25.120Z,2.3
2018-03-03T00:22:15.474Z,2.4
2018-03-03T00:23:05.425Z,2.6
2018-03-03T00:23:56.236Z,2.7
2018-03-03T00:24:45.120Z,2.9
2018-03-03T00:25:36.251Z,2.9
2018-03-03T00:26:25.836Z,2.9
2018-03-03T00:27:16.093Z,2.7
2018-03-03T00:28:05.875Z,2.6
2018-03-03T00:28:55.840Z,2.6
2018-03-03T00:29:45.960Z,2.5
2018-03-03T00:30:36.155Z,2.4
2018-03-03T00:31:26.486Z,2.4
2018-03-03T00:32:16.220Z,2.5
2018-03-03T00:33:05.891Z,2.8
2018-03-03T00:33:56.625Z,2.8
2018-03-03T00:34:46.006Z,2.7
2018-03-03T00:35:36.469Z,2.6
2018-03-03T00:36:26.823Z,2.4
2018-03-03T00:37:16.675Z,2.3
2018-03-03T00:38:06.618Z,2.3
2018-03-03T00:38:57.295Z,2.1
2018-03-03T00:39:46.266Z,2.1
2018-03-03T00:40:36.227Z,2.1
2018-03-03T00:41:26.973Z,2.2
2018-03-03T00:42:16.535Z,2.1
2018-03-03T00:43:06.562Z,2.1
2018-03-03T00:43:57.049Z,2.3
2018-03-03T00:44:47.680Z,2.5
2018-03-03T00:45:37.427Z,2.6
2018-03-03T00:46:27.466Z,2.8
2018-03-03T00:47:17.812Z,3.2
2018-03-03T00:48:08.463Z,3.3
2018-03-03T00:48:57.437Z,3.4
2018-03-03T00:49:47.601Z,3.5
2018-03-03T00:50:37.756Z,3.4
2018-03-03T00:51:27.199Z,3.8
2018-03-03T00:52:17.407Z,4
2018-03-03T00:53:07.437Z,4.1
2018-03-03T00:53:58.250Z,4.2
2018-03-03T00:54:47.549Z,4.4
2018-03-03T00:55:38.380Z,4.3
2018-03-03T00:56:28.528Z,4.4
2018-03-03T00:57:17.507Z,4.6
2018-03-03T00:58:08.689Z,4.6
2018-03-03T00:58:58.402Z,4.5
2018-03-03T00:59:47.982Z,4.3
2018-03-03T01:00:39.006Z,4.3
2018-03-03T01:01:28.289Z,4.2
2018-03-03T01:02:18.579Z,4.2
2018-03-03T01:03:08.311Z,4.2
2018-03-03T01:03:58.766Z,4.2
2018-03-03T01:04:48.704Z,4.2
2018-03-03T01:05:39.380Z,4.3
2018-03-03T01:06:28.903Z,4.3
2018-03-03T01:07:19.161Z,4.2
2018-03-03T01:08:09.040Z,4.3
2018-03-03T01:08:58.776Z,4.3
2018-03-03T01:09:49.458Z,4.3
2018-03-03T01:10:39.175Z,4.3
2018-03-03T01:11:29.746Z,4.2
2018-03-03T01:12:19.773Z,4.2
2018-03-03T01:13:09.006Z,4.1
2018-03-03T01:13:59.710Z,4
2018-03-03T01:14:49.766Z,4.1
2018-03-03T01:15:39.350Z,4.1
2018-03-03T01:16:29.315Z,4.1
2018-03-03T01:17:19.364Z,4.1
2018-03-03T01:18:09.226Z,3.9
2018-03-03T01:18:59.964Z,3.9
2018-03-03T01:19:49.923Z,3.9
2018-03-03T01:20:40.343Z,3.8
2018-03-03T01:21:29.845Z,3.7
2018-03-03T01:22:19.490Z,3.8
2018-03-03T01:23:09.450Z,3.8
2018-03-03T01:23:59.730Z,3.8
2018-03-03T01:24:48.612Z,3.8
2018-03-03T01:25:40.124Z,3.8
2018-03-03T01:26:30.323Z,3.8
2018-03-03T01:27:20.530Z,3.9
2018-03-03T01:28:10.116Z,3.9
2018-03-03T01:29:00.632Z,3.9
2018-03-03T01:29:50.400Z,3.9
2018-03-03T01:30:41.014Z,4
2018-03-03T01:31:30.880Z,3.9
2018-03-03T01:32:20.160Z,4
2018-03-03T01:33:10.338Z,3.9
2018-03-03T01:34:00.687Z,3.9
2018-03-03T01:34:51.060Z,3.9
2018-03-03T01:35:39.793Z,4
2018-03-03T01:36:31.425Z,4.3
2018-03-03T01:37:20.750Z,4.4
2018-03-03T01:38:09.765Z,4.4
2018-03-03T01:39:01.042Z,4.6
2018-03-03T01:39:51.480Z,4.8
2018-03-03T01:40:41.134Z,4.8
2018-03-03T01:41:31.204Z,4.8
2018-03-03T01:42:21.827Z,5
2018-03-03T01:43:10.887Z,5.4
2018-03-03T01:44:01.167Z,5.4
2018-03-03T01:44:51.109Z,5.4
2018-03-03T01:45:41.744Z,5.6
2018-03-03T01:46:32.128Z,5.8
2018-03-03T01:47:21.950Z,6
2018-03-03T01:48:11.959Z,6.1
2018-03-03T01:49:02.298Z,5.9
2018-03-03T01:49:51.743Z,6.1
2018-03-03T01:50:42.096Z,6
2018-03-03T01:51:31.869Z,5.9
2018-03-03T01:52:21.997Z,5.8
2018-03-03T01:53:11.784Z,5.8
2018-03-03T01:54:01.836Z,5.7
2018-03-03T01:54:52.066Z,5.7
2018-03-03T01:55:42.401Z,5.8
2018-03-03T01:56:32.351Z,5.9
2018-03-03T01:57:21.848Z,5.8
2018-03-03T01:58:12.672Z,5.8
2018-03-03T01:59:02.447Z,5.8
2018-03-03T01:59:51.939Z,5.8
2018-03-03T02:00:42.848Z,5.8
2018-03-03T02:01:33.105Z,5.6
2018-03-03T02:02:22.195Z,5.7
2018-03-03T02:03:12.158Z,5.6
2018-03-03T02:04:03.101Z,5.8
2018-03-03T02:04:52.559Z,5.8
2018-03-03T02:05:42.938Z,5.8
2018-03-03T02:06:32.944Z,5.9
2018-03-03T02:07:23.626Z,5.8
2018-03-03T02:08:13.075Z,5.7
2018-03-03T02:09:03.074Z,5.8
2018-03-03T02:09:53.092Z,5.8
2018-03-03T02:10:43.425Z,5.7
2018-03-03T02:11:32.993Z,5.6
2018-03-03T02:12:23.262Z,5.6
2018-03-03T02:13:12.831Z,5.8
2018-03-03T02:14:03.378Z,5.9
2018-03-03T02:14:54.133Z,6.3
2018-03-03T02:15:43.257Z,6.8
2018-03-03T02:16:33.530Z,7.1
2018-03-03T02:17:23.883Z,7.3
2018-03-03T02:18:13.680Z,7
2018-03-03T02:19:03.987Z,7
2018-03-03T02:19:53.596Z,7.1
2018-03-03T02:20:44.174Z,6.9
2018-03-03T02:21:34.460Z,6.8
2018-03-03T02:22:23.789Z,6.9
2018-03-03T02:23:13.763Z,6.9
2018-03-03T02:24:03.868Z,7
2018-03-03T02:24:54.108Z,6.9
2018-03-03T02:25:44.157Z,6.7
2018-03-03T02:26:33.737Z,6.6
2018-03-03T02:27:24.272Z,6.6
2018-03-03T02:28:14.897Z,6.5
2018-03-03T02:29:04.092Z,6.6
2018-03-03T02:29:54.069Z,6.7
2018-03-03T02:30:44.185Z,6.8
2018-03-03T02:31:34.873Z,6.8
2018-03-03T02:32:24.322Z,6.5
2018-03-03T02:33:14.941Z,6.5
2018-03-03T02:34:05.299Z,6.6
2018-03-03T02:34:55.641Z,6.4
2018-03-03T02:35:45.662Z,6.3
2018-03-03T02:36:35.753Z,6.1
2018-03-03T02:37:25.260Z,5.9
2018-03-03T02:38:15.324Z,5.8
2018-03-03T02:39:05.640Z,5.6
2018-03-03T02:39:55.672Z,5.7
2018-03-03T02:40:45.161Z,5.7
2018-03-03T02:41:36.097Z,5.7
2018-03-03T02:42:25.840Z,5.8
2018-03-03T02:43:15.927Z,5.9
2018-03-03T02:44:05.960Z,6.1
2018-03-03T02:44:56.296Z,6.1
2018-03-03T02:45:46.282Z,6
2018-03-03T02:46:35.843Z,5.9
2018-03-03T02:47:26.388Z,5.9
2018-03-03T02:48:16.288Z,6
2018-03-03T02:49:06.350Z,5.9
2018-03-03T02:49:56.336Z,5.8
2018-03-03T02:50:45.266Z,5.9
2018-03-03T02:51:36.205Z,5.8
2018-03-03T02:52:26.543Z,5.9
2018-03-03T02:53:15.435Z,5.9
2018-03-03T02:54:05.900Z,5.9
2018-03-03T02:54:55.841Z,5.9
2018-03-03T02:55:46.488Z,5.9
2018-03-03T02:56:36.345Z,5.8
2018-03-03T02:57:25.721Z,5.9
2018-03-03T02:58:16.433Z,5.9
2018-03-03T02:59:05.827Z,5.9
2018-03-03T02:59:56.085Z,6.1
2018-03-03T03:00:46.673Z,6
2018-03-03T03:01:36.681Z,5.8
2018-03-03T03:02:26.151Z,5.7
2018-03-03T03:03:16.713Z,5.8
2018-03-03T03:04:06.784Z,5.8
2018-03-03T03:04:57.230Z,5.8
2018-03-03T03:05:47.427Z,5.8
2018-03-03T03:06:36.923Z,5.9
2018-03-03T03:07:27.383Z,5.9
2018-03-03T03:08:17.137Z,6.2
2018-03-03T03:09:07.702Z,6
2018-03-03T03:09:56.170Z,5.9
2018-03-03T03:10:46.731Z,5.9
2018-03-03T03:11:37.571Z,5.8
2018-03-03T03:12:27.032Z,5.8
2018-03-03T03:13:16.897Z,5.7
2018-03-03T03:14:06.422Z,5.6
2018-03-03T03:14:57.697Z,5.5
2018-03-03T03:15:47.420Z,5.6
2018-03-03T03:16:36.850Z,5.6
2018-03-03T03:17:27.939Z,5.6
2018-03-03T03:18:18.284Z,5.5
2018-03-03T03:19:07.198Z,5.8
2018-03-03T03:19:58.254Z,5.9
2018-03-03T03:20:47.767Z,6.3
2018-03-03T03:21:37.922Z,6.5
2018-03-03T03:22:28.089Z,6.6
2018-03-03T03:23:18.501Z,6.8
2018-03-03T03:24:07.900Z,6.6
2018-03-03T03:24:58.154Z,6.6
2018-03-03T03:25:47.731Z,6.6
2018-03-03T03:26:38.516Z,6.8
2018-03-03T03:27:27.638Z,6.7
2018-03-03T03:28:18.204Z,6.9
2018-03-03T03:29:08.551Z,6.9
2018-03-03T03:29:58.204Z,6.8
2018-03-03T03:30:48.652Z,6.9
2018-03-03T03:31:38.638Z,6.9
2018-03-03T03:32:28.438Z,6.9
2018-03-03T03:33:18.525Z,7.1
2018-03-03T03:34:08.776Z,7
2018-03-03T03:34:58.823Z,6.9
2018-03-03T03:35:49.495Z,7
2018-03-03T03:36:38.644Z,7
2018-03-03T03:37:28.315Z,6.9
2018-03-03T03:38:19.096Z,6.9
2018-03-03T03:39:08.836Z,6.8
2018-03-03T03:39:58.179Z,6.8
2018-03-03T03:40:48.521Z,6.9
2018-03-03T03:41:39.882Z,6.8
2018-03-03T03:42:29.918Z,6.8
2018-03-03T03:43:18.589Z,6.9
2018-03-03T03:44:09.855Z,6.9
2018-03-03T03:44:59.860Z,6.8
2018-03-03T03:45:49.868Z,6.8
2018-03-03T03:46:39.623Z,6.8
2018-03-03T03:47:29.975Z,6.8
2018-03-03T03:48:20.602Z,6.9
2018-03-03T03:49:09.296Z,7.1
2018-03-03T03:50:00.111Z,7.1
2018-03-03T03:50:49.583Z,7
2018-03-03T03:51:39.465Z,7
2018-03-03T03:52:29.987Z,7.1
2018-03-03T03:53:19.582Z,6.9
2018-03-03T03:54:10.123Z,6.9
2018-03-03T03:55:00.463Z,6.9
2018-03-03T03:55:49.827Z,6.7
2018-03-03T03:56:40.537Z,6.7
2018-03-03T03:57:30.859Z,6.7
2018-03-03T03:58:20.932Z,6.6
2018-03-03T03:59:11.274Z,6.6
2018-03-03T04:00:00.474Z,6.7
2018-03-03T04:00:50.563Z,6.8
2018-03-03T04:01:41.451Z,7
2018-03-03T04:02:31.504Z,7.1
2018-03-03T04:03:21.219Z,7.1
2018-03-03T04:04:10.854Z,7.2
2018-03-03T04:05:01.126Z,7.2
2018-03-03T04:05:51.472Z,7.1
2018-03-03T04:06:40.769Z,7
2018-03-03T04:07:31.302Z,7.1
2018-03-03T04:08:21.426Z,7.1
2018-03-03T04:09:11.523Z,7.2
2018-03-03T04:10:00.686Z,7.1
2018-03-03T04:10:51.523Z,7.3
2018-03-03T04:11:41.586Z,7.3
2018-03-03T04:12:31.237Z,7.1
2018-03-03T04:13:21.301Z,7
2018-03-03T04:14:10.784Z,6.9
2018-03-03T04:15:01.542Z,6.8
2018-03-03T04:15:51.276Z,6.7
2018-03-03T04:16:41.046Z,6.8
2018-03-03T04:17:31.677Z,6.8
2018-03-03T04:18:21.841Z,6.8
2018-03-03T04:19:11.511Z,6.7
2018-03-03T04:20:01.270Z,6.6
2018-03-03T04:20:51.931Z,6.5
2018-03-03T04:21:41.769Z,6.6
2018-03-03T04:22:32.301Z,6.8
2018-03-03T04:23:22.655Z,6.8
2018-03-03T04:24:12.438Z,6.8
2018-03-03T04:25:02.090Z,6.8
2018-03-03T04:25:52.092Z,6.6
2018-03-03T04:26:42.682Z,6.6
2018-03-03T04:27:32.490Z,6.8
2018-03-03T04:28:21.838Z,6.9
2018-03-03T04:29:12.770Z,6.8
2018-03-03T04:30:02.539Z,6.8
2018-03-03T04:30:52.906Z,6.7
2018-03-03T04:31:42.632Z,6.7
2018-03-03T04:32:32.995Z,6.6
2018-03-03T04:33:23.061Z,6.6
2018-03-03T04:34:12.198Z,6.7
2018-03-03T04:35:03.529Z,7
2018-03-03T04:35:52.816Z,6.8
2018-03-03T04:36:42.895Z,6.8
2018-03-03T04:37:32.842Z,6.5
2018-03-03T04:38:22.511Z,6.1
2018-03-03T04:39:12.579Z,5.8
2018-03-03T04:40:03.214Z,5.4
2018-03-03T04:40:52.801Z,5.1
2018-03-03T04:41:43.303Z,4.9
2018-03-03T04:42:33.089Z,4.8
2018-03-03T04:43:23.306Z,4.6
2018-03-03T04:44:13.181Z,4.5
2018-03-03T04:45:04.119Z,4.4
2018-03-03T04:45:53.758Z,4.3
2018-03-03T04:46:43.629Z,4.3
2018-03-03T04:47:33.586Z,4.3
2018-03-03T04:48:23.295Z,4.3
2018-03-03T04:49:14.373Z,4.3
2018-03-03T04:50:04.202Z,4.4
2018-03-03T04:50:54.301Z,4.7
2018-03-03T04:51:44.298Z,4.9
2018-03-03T04:52:34.624Z,5
2018-03-03T04:53:24.955Z,4.8
2018-03-03T04:54:14.725Z,4.7
2018-03-03T04:55:04.763Z,4.5
2018-03-03T04:55:54.827Z,4.6
2018-03-03T04:56:44.156Z,4.6
2018-03-03T04:57:34.669Z,4.8
2018-03-03T04:58:23.940Z,4.9
2018-03-03T04:59:14.802Z,4.9
2018-03-03T05:00:04.060Z,5.1
2018-03-03T05:00:54.941Z,5.3
2018-03-03T05:01:44.750Z,5.4
2018-03-03T05:02:35.049Z,5.5
2018-03-03T05:03:24.387Z,5.7
2018-03-03T05:04:14.812Z,5.8
2018-03-03T05:05:04.994Z,5.9
2018-03-03T05:05:54.728Z,5.9
2018-03-03T05:06:44.792Z,5.9
2018-03-03T05:07:35.114Z,5.9
2018-03-03T05:08:25.376Z,5.9
2018-03-03T05:09:14.857Z,5.9
2018-03-03T05:10:04.935Z,5.9
2018-03-03T05:10:55.316Z,6
2018-03-03T05:11:45.131Z,6
2018-03-03T05:12:35.696Z,6.1
2018-03-03T05:13:25.714Z,6
2018-03-03T05:14:15.650Z,5.9
2018-03-03T05:15:05.377Z,5.9
2018-03-03T05:15:56.274Z,6.1
2018-03-03T05:16:45.290Z,5.9
2018-03-03T05:17:35.785Z,5.8
2018-03-03T05:18:24.699Z,5.7
2018-03-03T05:19:16.181Z,5.8
2018-03-03T05:20:06.256Z,5.8
2018-03-03T05:20:55.551Z,5.8
2018-03-03T05:21:45.805Z,5.7
2018-03-03T05:22:36.041Z,5.7
2018-03-03T05:23:26.697Z,5.7
2018-03-03T05:24:15.933Z,5.4
2018-03-03T05:25:06.816Z,4.9
2018-03-03T05:25:55.423Z,4.6
2018-03-03T05:26:46.070Z,4.3
2018-03-03T05:27:36.013Z,4.1
2018-03-03T05:28:27.386Z,4.1
2018-03-03T05:29:15.354Z,4
2018-03-03T05:30:06.901Z,3.9
2018-03-03T05:30:57.251Z,3.9
2018-03-03T05:31:47.332Z,3.8
2018-03-03T05:32:36.923Z,3.8
2018-03-03T05:33:27.105Z,3.8
2018-03-03T05:34:16.679Z,3.6
2018-03-03T05:35:07.304Z,3.6
2018-03-03T05:35:56.388Z,3.6
2018-03-03T05:36:47.038Z,3.5
2018-03-03T05:37:37.270Z,3.6
2018-03-03T05:38:27.486Z,3.7
2018-03-03T05:39:16.603Z,3.8
2018-03-03T05:40:06.779Z,3.8
2018-03-03T05:40:58.175Z,3.9
2018-03-03T05:41:47.973Z,3.9
2018-03-03T05:42:37.685Z,3.9
2018-03-03T05:43:26.988Z,3.8
2018-03-03T05:44:17.041Z,3.8
2018-03-03T05:45:07.210Z,3.9
2018-03-03T05:45:57.942Z,4.3
2018-03-03T05:46:47.965Z,4.4
2018-03-03T05:47:38.049Z,4.4
2018-03-03T05:48:28.381Z,4.6
2018-03-03T05:49:17.475Z,4.7
2018-03-03T05:50:08.244Z,4.6
2018-03-03T05:50:58.064Z,4.5
2018-03-03T05:51:48.035Z,4.4
2018-03-03T05:52:38.174Z,4.4
2018-03-03T05:53:27.957Z,4.4
2018-03-03T05:54:18.197Z,4.4
2018-03-03T05:55:08.526Z,4.4
2018-03-03T05:55:58.137Z,4.4
2018-03-03T05:56:48.254Z,4.3
2018-03-03T05:57:38.393Z,4.3
2018-03-03T05:58:28.465Z,4.2
2018-03-03T05:59:18.639Z,4.2
2018-03-03T06:00:09.157Z,4.2
2018-03-03T06:00:58.356Z,4.1
2018-03-03T06:01:48.847Z,4.1
2018-03-03T06:02:39.340Z,4.1
2018-03-03T06:03:29.147Z,4
2018-03-03T06:04:19.511Z,4.1
2018-03-03T06:05:09.500Z,4
2018-03-03T06:05:59.568Z,4
2018-03-03T06:06:49.611Z,4
2018-03-03T06:07:39.649Z,4
2018-03-03T06:08:29.732Z,4.1
2018-03-03T06:09:19.763Z,4.1
2018-03-03T06:10:09.833Z,4.2
2018-03-03T06:10:59.906Z,4.3
2018-03-03T06:11:49.976Z,4.3
2018-03-03T06:12:40.016Z,4.3
2018-03-03T06:14:10.097Z,4.3
2018-03-03T06:14:23.629Z,4.3
2018-03-03T06:15:14.282Z,4.3
2018-03-03T06:16:04.578Z,4.3
2018-03-03T06:16:54.376Z,4.3
2018-03-03T06:17:44.704Z,4.3
2018-03-03T06:18:33.906Z,4.4
2018-03-03T06:19:24.801Z,4.4
2018-03-03T06:20:14.897Z,4.4
2018-03-03T06:21:04.924Z,4.5
2018-03-03T06:21:54.444Z,4.5
2018-03-03T06:22:44.477Z,4.6
2018-03-03T06:23:35.077Z,4.7
2018-03-03T06:24:24.307Z,4.8
2018-03-03T06:25:14.982Z,4.9
2018-03-03T06:26:04.976Z,4.9
2018-03-03T06:26:55.054Z,5
2018-03-03T06:27:45.122Z,5.1
2018-03-03T06:28:35.172Z,5.2
2018-03-03T06:29:24.919Z,5.2
2018-03-03T06:30:15.254Z,5.3
2018-03-03T06:31:05.081Z,5.3
2018-03-03T06:31:55.390Z,5.4
2018-03-03T06:32:45.536Z,5.3
2018-03-03T06:33:35.805Z,5.4
2018-03-03T06:34:25.289Z,5.4
2018-03-03T06:35:15.594Z,5.4
2018-03-03T06:36:05.957Z,5.4
2018-03-03T06:36:55.716Z,5.5
2018-03-03T06:37:45.213Z,5.5
2018-03-03T06:38:35.822Z,5.5
2018-03-03T06:39:26.181Z,5.4
2018-03-03T06:40:15.652Z,5.4
2018-03-03T06:41:06.257Z,5.4
2018-03-03T06:41:56.066Z,5.4
2018-03-03T06:42:46.373Z,5.4
2018-03-03T06:43:36.163Z,5.4
2018-03-03T06:44:26.492Z,5.4
2018-03-03T06:45:16.543Z,5.5
2018-03-03T06:46:06.662Z,5.5
2018-03-03T06:46:56.425Z,5.5
2018-03-03T06:47:46.730Z,5.4
2018-03-03T06:48:36.772Z,5.5
2018-03-03T06:49:26.603Z,5.5
2018-03-03T06:50:16.614Z,5.5
2018-03-03T06:51:06.661Z,5.6
2018-03-03T06:51:56.789Z,5.6
2018-03-03T06:52:47.047Z,5.6
2018-03-03T06:53:37.090Z,5.6
2018-03-03T06:54:26.895Z,5.6
2018-03-03T06:55:17.225Z,5.6
2018-03-03T06:56:07.251Z,5.6
2018-03-03T06:56:57.361Z,5.6
2018-03-03T06:57:47.115Z,5.7
2018-03-03T06:58:37.452Z,5.7
2018-03-03T06:59:27.479Z,5.8
2018-03-03T07:00:17.249Z,5.8
2018-03-03T07:01:06.965Z,5.8
2018-03-03T07:01:56.997Z,5.8
2018-03-03T07:02:46.604Z,5.9
2018-03-03T07:03:36.975Z,5.9
2018-03-03T07:04:27.277Z,6
2018-03-03T07:05:17.045Z,6.1
2018-03-03T07:06:06.751Z,6.1
2018-03-03T07:06:57.159Z,6.1
2018-03-03T07:07:47.445Z,6.1
2018-03-03T07:08:36.881Z,6.1
2018-03-03T07:09:27.119Z,6
2018-03-03T07:10:17.950Z,6
2018-03-03T07:11:07.349Z,5.9
2018-03-03T07:11:58.158Z,5.9
2018-03-03T07:12:48.148Z,6
2018-03-03T07:13:37.712Z,6.1
2018-03-03T07:14:28.541Z,6.2
2018-03-03T07:15:17.748Z,6.3
2018-03-03T07:16:08.178Z,6.4
2018-03-03T07:16:57.169Z,6.4
2018-03-03T07:17:47.998Z,6.4
2018-03-03T07:18:38.031Z,6.5
2018-03-03T07:19:28.300Z,6.6
2018-03-03T07:20:18.114Z,6.7
2018-03-03T07:21:08.408Z,6.7
2018-03-03T07:21:58.471Z,6.6
2018-03-03T07:22:47.716Z,6.5
2018-03-03T07:23:38.299Z,6.4
2018-03-03T07:24:28.086Z,6.4
2018-03-03T07:25:18.609Z,6.4
2018-03-03T07:26:08.156Z,6.4
2018-03-03T07:26:58.608Z,6.3
2018-03-03T07:27:49.295Z,6.3
2018-03-03T07:28:38.352Z,6.3
2018-03-03T07:29:27.931Z,6.3
2018-03-03T07:30:19.228Z,6.4
2018-03-03T07:31:08.900Z,6.4
2018-03-03T07:31:58.540Z,6.4
2018-03-03T07:32:49.134Z,6.4
2018-03-03T07:33:38.970Z,6.4
2018-03-03T07:34:28.830Z,6.4
2018-03-03T07:35:19.360Z,6.5
2018-03-03T07:36:08.542Z,6.4
2018-03-03T07:36:59.066Z,6.4
2018-03-03T07:37:48.642Z,6.5
2018-03-03T07:38:38.908Z,6.4
2018-03-03T07:39:29.395Z,6.4
2018-03-03T07:40:19.968Z,6.5
2018-03-03T07:41:09.378Z,6.5
2018-03-03T07:41:59.458Z,6.7
2018-03-03T07:42:49.912Z,6.8
2018-03-03T07:43:39.162Z,6.9
2018-03-03T07:44:29.692Z,6.9
2018-03-03T07:45:20.023Z,6.9
2018-03-03T07:46:08.910Z,7.1
2018-03-03T07:46:59.089Z,7
2018-03-03T07:47:50.032Z,7
2018-03-03T07:48:40.241Z,7.1
2018-03-03T07:49:30.907Z,7.1
2018-03-03T07:50:20.192Z,7.1
2018-03-03T07:51:10.132Z,7.1
2018-03-03T07:52:00.297Z,7.1
2018-03-03T07:52:49.758Z,7.1
2018-03-03T07:53:40.197Z,7.1
2018-03-03T07:54:30.528Z,7
2018-03-03T07:55:20.707Z,6.9
2018-03-03T07:56:10.874Z,6.9
2018-03-03T07:57:00.912Z,6.8
2018-03-03T07:57:50.596Z,6.8
2018-03-03T07:58:40.934Z,6.8
2018-03-03T07:59:30.900Z,6.8
2018-03-03T08:00:20.556Z,7
2018-03-03T08:01:11.127Z,7.2
2018-03-03T08:02:01.172Z,7.3
2018-03-03T08:02:51.020Z,7.6
2018-03-03T08:03:41.288Z,7.7
2018-03-03T08:04:31.036Z,7.8
2018-03-03T08:05:21.976Z,8
2018-03-03T08:06:11.156Z,8.1
2018-03-03T08:07:01.191Z,8.1
2018-03-03T08:07:51.861Z,8.3
2018-03-03T08:08:41.723Z,8.3
2018-03-03T08:09:31.445Z,8.3
2018-03-03T08:10:21.675Z,8.2
2018-03-03T08:11:12.055Z,8.1
2018-03-03T08:12:02.101Z,8.4
2018-03-03T08:12:52.264Z,8.4
2018-03-03T08:13:41.928Z,8.1
2018-03-03T08:14:32.005Z,8.1
2018-03-03T08:15:21.273Z,8.3
2018-03-03T08:16:12.403Z,8.4
2018-03-03T08:17:02.181Z,8.4
2018-03-03T08:17:51.660Z,8.3
2018-03-03T08:18:41.691Z,8.3
2018-03-03T08:19:32.344Z,8.2
2018-03-03T08:20:21.881Z,8.3
2018-03-03T08:21:11.961Z,8.4
2018-03-03T08:22:02.396Z,8.6
2018-03-03T08:22:51.667Z,8.4
2018-03-03T08:23:42.915Z,8.6
2018-03-03T08:24:32.189Z,8.5
2018-03-03T08:25:23.058Z,8.6
2018-03-03T08:26:13.381Z,8.6
2018-03-03T08:27:02.162Z,8.7
2018-03-03T08:27:52.802Z,9
2018-03-03T08:28:42.463Z,8.9
2018-03-03T08:29:33.173Z,8.8
2018-03-03T08:30:22.852Z,8.9
2018-03-03T08:31:12.923Z,8.9
2018-03-03T08:32:03.211Z,8.9
2018-03-03T08:32:52.660Z,8.9
2018-03-03T08:33:42.714Z,9
2018-03-03T08:34:33.656Z,9.2
2018-03-03T08:35:22.217Z,9.1
2018-03-03T08:36:13.527Z,8.9
2018-03-03T08:37:03.426Z,8.9
2018-03-03T08:37:53.367Z,8.9
2018-03-03T08:38:43.331Z,9.1
2018-03-03T08:39:33.761Z,9.4
2018-03-03T08:40:23.624Z,9.7
2018-03-03T08:41:14.367Z,9.9
2018-03-03T08:42:04.089Z,9.8
2018-03-03T08:42:54.469Z,10.1
2018-03-03T08:43:44.521Z,10.1
2018-03-03T08:44:33.986Z,10
2018-03-03T08:45:24.336Z,9.7
2018-03-03T08:46:14.088Z,9.8
2018-03-03T08:47:04.446Z,10.1
2018-03-03T08:47:54.811Z,10.3
2018-03-03T08:48:44.556Z,10.6
2018-03-03T08:49:33.787Z,10.9
2018-03-03T08:50:23.912Z,11.1
2018-03-03T08:51:14.390Z,10.8
2018-03-03T08:52:03.562Z,10.7
2018-03-03T08:52:54.381Z,10.7
2018-03-03T08:53:44.640Z,10.9
2018-03-03T08:54:34.121Z,10.9
2018-03-03T08:55:25.315Z,10.7
2018-03-03T08:56:14.545Z,10.8
2018-03-03T08:57:04.665Z,10.6
2018-03-03T08:57:54.420Z,10.2
2018-03-03T08:58:45.026Z,10
2018-03-03T08:59:34.261Z,10.3
2018-03-03T09:00:25.101Z,10.1
2018-03-03T09:01:15.073Z,10.1
2018-03-03T09:02:04.955Z,10.4
2018-03-03T09:02:55.171Z,10.3
2018-03-03T09:03:44.347Z,10.3
2018-03-03T09:04:35.049Z,10.6
2018-03-03T09:05:24.936Z,10.7
2018-03-03T09:06:16.156Z,10.6
2018-03-03T09:07:05.364Z,10.6
2018-03-03T09:07:55.236Z,10.6
2018-03-03T09:08:44.980Z,10.6
2018-03-03T09:09:35.210Z,10.8
2018-03-03T09:10:25.883Z,11
2018-03-03T09:11:15.259Z,10.8
2018-03-03T09:12:04.698Z,10.7
2018-03-03T09:12:55.667Z,10.4
2018-03-03T09:13:45.522Z,10.5
2018-03-03T09:14:35.710Z,10.6
2018-03-03T09:15:26.346Z,10.6
2018-03-03T09:16:15.948Z,10.6
2018-03-03T09:17:05.290Z,10.4
2018-03-03T09:17:56.017Z,10.6
2018-03-03T09:18:45.924Z,10.9
2018-03-03T09:19:36.397Z,11.1
2018-03-03T09:20:26.473Z,11.3
2018-03-03T09:21:16.130Z,11.3
2018-03-03T09:22:06.004Z,11.4
2018-03-03T09:22:56.686Z,11.4
2018-03-03T09:23:46.521Z,11.2
2018-03-03T09:24:37.059Z,11.1
2018-03-03T09:25:26.124Z,11
2018-03-03T09:26:16.116Z,11.1
2018-03-03T09:27:06.364Z,11.1
2018-03-03T09:27:56.626Z,11.1
2018-03-03T09:28:46.654Z,11.4
2018-03-03T09:29:37.208Z,11.8
2018-03-03T09:30:27.430Z,11.6
2018-03-03T09:31:16.956Z,11.4
2018-03-03T09:32:07.374Z,11.6
2018-03-03T09:32:56.858Z,11.6
2018-03-03T09:33:46.914Z,11.6
2018-03-03T09:34:37.735Z,11.8
2018-03-03T09:35:26.925Z,11.8
2018-03-03T09:36:17.811Z,12.1
2018-03-03T09:37:07.355Z,12.3
2018-03-03T09:37:57.859Z,12.3
2018-03-03T09:38:47.364Z,11.8
2018-03-03T09:39:37.928Z,11.4
2018-03-03T09:40:28.017Z,11.1
2018-03-03T09:41:17.854Z,11
2018-03-03T09:42:07.716Z,11
2018-03-03T09:42:57.742Z,10.9
2018-03-03T09:43:48.034Z,10.9
2018-03-03T09:44:38.003Z,10.8
2018-03-03T09:45:28.163Z,10.9
2018-03-03T09:46:17.775Z,10.9
2018-03-03T09:47:07.875Z,10.9
2018-03-03T09:47:57.608Z,11.1
2018-03-03T09:48:48.056Z,11.3
2018-03-03T09:49:37.754Z,11.3
2018-03-03T09:50:27.285Z,11.3
2018-03-03T09:51:18.732Z,11.4
2018-03-03T09:52:08.125Z,11.6
2018-03-03T09:52:58.460Z,11.6
2018-03-03T09:53:48.333Z,11.5
2018-03-03T09:54:38.400Z,11.4
2018-03-03T09:55:28.940Z,11.5
2018-03-03T09:56:18.040Z,11.6
2018-03-03T09:57:08.464Z,11.7
2018-03-03T09:57:59.099Z,11.6
2018-03-03T09:58:49.584Z,11.8
2018-03-03T09:59:39.027Z,11.6
2018-03-03T10:00:28.897Z,11.5
2018-03-03T10:01:18.941Z,11.4
2018-03-03T10:02:09.545Z,11.3
2018-03-03T10:02:59.377Z,11.4
2018-03-03T10:03:48.719Z,11.4
2018-03-03T10:04:39.241Z,11.6
2018-03-03T10:05:29.094Z,11.4
2018-03-03T10:06:19.652Z,11.3
2018-03-03T10:07:08.949Z,11.1
2018-03-03T10:07:59.794Z,11.1
2018-03-03T10:08:48.882Z,11.1
2018-03-03T10:09:40.188Z,11.3
2018-03-03T10:10:29.955Z,11.2
2018-03-03T10:11:19.727Z,11.2
2018-03-03T10:12:10.067Z,10.8
2018-03-03T10:13:00.152Z,10.6
2018-03-03T10:13:49.207Z,10.7
2018-03-03T10:14:39.759Z,10.7
2018-03-03T10:15:30.377Z,10.6
2018-03-03T10:16:19.469Z,10.6
2018-03-03T10:17:10.121Z,10.4
2018-03-03T10:17:59.789Z,10.3
2018-03-03T10:18:49.863Z,10.3
2018-03-03T10:19:40.324Z,10.3
2018-03-03T10:20:29.909Z,10.5
2018-03-03T10:21:20.445Z,10.4
2018-03-03T10:22:10.455Z,10.1
2018-03-03T10:23:00.834Z,10.1
2018-03-03T10:23:49.983Z,10.4
2018-03-03T10:24:40.734Z,10.6
2018-03-03T10:25:30.824Z,10.6
2018-03-03T10:26:21.753Z,10.6
2018-03-03T10:27:11.124Z,10.5
2018-03-03T10:28:01.451Z,10.7
2018-03-03T10:28:50.538Z,10.6
2018-03-03T10:29:40.744Z,10.4
2018-03-03T10:30:31.376Z,10.3
2018-03-03T10:31:20.930Z,10.4
2018-03-03T10:32:11.070Z,10.6
2018-03-03T10:33:02.146Z,10.9
2018-03-03T10:33:51.301Z,10.8
2018-03-03T10:34:40.782Z,10.8
2018-03-03T10:35:31.708Z,10.7
2018-03-03T10:36:21.749Z,10.4
2018-03-03T10:37:12.118Z,10.4
2018-03-03T10:38:01.593Z,10.4
2018-03-03T10:38:51.913Z,10.6
2018-03-03T10:39:42.010Z,10.6
2018-03-03T10:40:31.563Z,10.6
2018-03-03T10:41:21.820Z,10.6
2018-03-03T10:42:11.477Z,10.8
2018-03-03T10:43:02.212Z,10.7
2018-03-03T10:43:52.388Z,10.7
2018-03-03T10:44:42.057Z,10.9
2018-03-03T10:45:31.635Z,10.9
2018-03-03T10:46:21.990Z,10.9
2018-03-03T10:47:12.316Z,11.1
2018-03-03T10:48:02.014Z,11.3
2018-03-03T10:48:52.158Z,11.3
2018-03-03T10:49:43.117Z,11.3
2018-03-03T10:50:32.356Z,11.3
2018-03-03T10:51:22.306Z,11.2
2018-03-03T10:52:12.069Z,11.3
2018-03-03T10:53:03.515Z,11.2
2018-03-03T10:53:53.052Z,11.1
2018-03-03T10:54:42.438Z,11.1
2018-03-03T10:55:33.086Z,11.2
2018-03-03T10:56:23.404Z,11.4
2018-03-03T10:57:13.041Z,11.3
2018-03-03T10:58:02.781Z,11.5
2018-03-03T10:58:52.243Z,11.7
2018-03-03T10:59:43.682Z,11.6
2018-03-03T11:00:32.689Z,11.7
2018-03-03T11:01:23.009Z,11.8
2018-03-03T11:02:11.992Z,11.4
2018-03-03T11:03:03.508Z,11.4
2018-03-03T11:03:53.433Z,11.3
2018-03-03T11:04:42.973Z,11.5
2018-03-03T11:05:32.828Z,11.6
2018-03-03T11:06:24.267Z,11.6
2018-03-03T11:07:13.639Z,11.6
2018-03-03T11:08:04.624Z,11.6
2018-03-03T11:08:53.482Z,11.5
2018-03-03T11:09:44.374Z,11.5
2018-03-03T11:10:33.671Z,11.7
2018-03-03T11:11:23.334Z,11.8
2018-03-03T11:12:14.271Z,11.9
2018-03-03T11:13:03.750Z,11.6
2018-03-03T11:13:53.485Z,11.6
2018-03-03T11:14:44.131Z,11.4
2018-03-03T11:15:33.749Z,11.7
2018-03-03T11:16:24.558Z,11.7
2018-03-03T11:17:14.337Z,11.7
2018-03-03T11:18:04.680Z,11.6
2018-03-03T11:18:54.151Z,11.8
2018-03-03T11:19:43.918Z,11.9
2018-03-03T11:20:34.845Z,12
2018-03-03T11:21:24.608Z,12.1
2018-03-03T11:22:14.777Z,12.1
2018-03-03T11:23:04.445Z,12.4
2018-03-03T11:23:55.083Z,12.3
2018-03-03T11:24:45.477Z,12
2018-03-03T11:25:35.491Z,12.1
2018-03-03T11:26:25.621Z,11.9
2018-03-03T11:27:15.131Z,11.7